Sligo Airport - TAF
(Terminal Area Forecast)

Issued at 10:36 UTC on Sun. 18-Aug-19

--- METARS(SA) ---

METAR EISG(SLIGO) 181030Z 27014KT CAVOK 16/12 Q0997 =

--- TAFS() ---

TAF EISG(SLIGO) 180800Z 1809/1818 26012KT 9999 SCT020 BKN035 TEMPO

1809/1818 28016G27KT TEMPO 1809/1810 4000 -SHRA SCT010 SCT018CB TEMPO

1814/1818 -SHRA SCT012 SCT018CB =

--- SIGMETS(WS) ---

IE - No VALID SIGMETS/Warnings FOR THIS AREA

--- SIGMETS Volcanic(WV) ---

IE - No VALID SIGMETS/Warnings FOR THIS AREA

--- SIGMETS(WS) ---

EGTT SIGMET 01 VALID 180927/181300 EGRR- EGTT

LONDON FIR SEV TURB FCST E OF LINE N5500 E00318 - N5016 E00026

FL250/280 MOV NE 40KT WKN=

Sligo Airport - METARs

Latest METARs for Sligo and Donegal Airports - updated every 30 mins